Theodore Roosevelt National Park, ND

6:06 AM MDT on August 01, 2014 (GMT -0600)
Dickinson Municipal (KDIK) Elev 2592 ft | 46.80 °N, 102.80 °W | Change Station

Current weather conditions updated 10 minutes ago

Clear
Clear
58 °F
Feels Like 58 °F
N
10
Wind Variable Wind from South

Today is forecast to be nearly the same temperature as yesterday.

Today
High -- | Low -- °F
--% Chance of Precip.
Yesterday
High -- | Low -- °F
Precip. -- in
5:30 AM 8:23 PM
Waxing Crescent, 26% visible
Pressure 29.98 in
Visibility 10.0 miles
Clouds Clear
Dew Point 54 °F
Humidity 87%
Rainfall 0.00 in
Snow Depth Not available.
UV 0 out of 12
Pollen 7.50 out of 12
Air Quality Not available.
Flu Activity Not available.
METAR KDIK 011156Z AUTO 19009KT 10SM CLR 14/12 A3003 RMK AO2 SLP152 T01440122 10172 20133 58005

More Conditions Fewer Conditions

Pressure 29.98 in
Visibility 10.0 miles
Clouds Clear
Dew Point 54 °F
Humidity 87%
Rainfall 0.00 in
Snow Depth Not available.
UV 0 out of 12
Pollen 7.50 out of 12
Air Quality Not available.
Flu Activity Not available.
METAR KDIK 011156Z AUTO 19009KT 10SM CLR 14/12 A3003 RMK AO2 SLP152 T01440122 10172 20133 58005

More Conditions Fewer Conditions

10-Day Weather Forecast

Almanac

Astronomy

Aug. 01, 2014 Rise Set
Actual Time 5:30 AM MDT 8:23 PM MDT
Civil Twilight 4:55 AM MDT 8:58 PM MDT
Nautical Twilight 4:10 AM MDT 9:43 PM MDT
Astronomical Twilight 3:16 AM MDT 10:36 PM MDT
Moon 11:20 AM MDT 10:43 PM MDT
Length of Visible Light 16h 02m
Length of Day
14h 52m
Tomorrow will be 2m 37s shorter.
Waxing Crescent, 26% of the Moon is Illuminated
Today
Waxing Crescent
Aug 3
First Quarter
Aug 10
Full
Aug 17
Last Quarter
Aug 25
New

Today's Extremes

State Highs State Lows

Community

WunderPhotos

Upload Photos

1,739,544 photos uploaded!

Nearby

Snow Depth

Station Depth Elevation
No new snow has been reported.

Earthquake Activity

City Distance Mag. Time & Date
No recent earthquake activity has been reported nearby.
Minimum magnitude displayed is 2.5.

Coastal Water Temperatures

Place Temperature
No Stations Reporting

Nearby Weather Stations

There are no personal weather stations in this area.